Terminal Aerodrome Forecast
Issued by NWS Mt. Holly, NJ

Home | Current Version | Previous Version | Text Only | Print | Product List | Glossary On
Versions: 1 2 3 4 5 6 7 8 9 10 11 12 13 14 15 16 17 18 19 20 21 22 23 24 25 26 27 28 29 30 31
558
FTUS41 KPHI 211136
TAFPHL
TAF
KPHL 211136Z 2112/2218 35008KT P6SM BKN070 BKN250
     FM211500 02010KT P6SM SCT250
     FM212200 34006KT P6SM BKN250
     FM221400 35010KT P6SM SCT050=

USA.gov is the U.S. government's official web portal to all federal, state and local government web resources and services.